createdAt,value
2019-02-06T00:01:12.455Z,17.48
2019-02-06T00:03:38.912Z,18.85
2019-02-06T00:06:05.948Z,18.55
2019-02-06T00:08:32.407Z,16.10
2019-02-06T00:10:58.974Z,15.53
2019-02-06T00:13:25.751Z,19.17
2019-02-06T00:15:52.424Z,16.97
2019-02-06T00:18:18.915Z,18.98
2019-02-06T00:20:45.237Z,18.02
2019-02-06T00:23:11.726Z,17.05
2019-02-06T00:25:38.104Z,17.45
2019-02-06T00:28:04.899Z,19.37
2019-02-06T00:30:31.365Z,19.00
2019-02-06T00:32:57.877Z,17.20
2019-02-06T00:35:26.112Z,17.12
2019-02-06T00:37:52.737Z,18.90
2019-02-06T00:40:19.121Z,19.65
2019-02-06T00:42:45.376Z,17.23
2019-02-06T00:45:12.736Z,19.50
2019-02-06T00:47:39.243Z,17.23
2019-02-06T00:50:14.177Z,17.32
2019-02-06T00:52:40.595Z,17.32
2019-02-06T00:55:07.057Z,18.60
2019-02-06T00:57:33.427Z,18.73
2019-02-06T00:59:59.825Z,19.55
2019-02-06T01:02:26.182Z,17.80
2019-02-06T01:04:52.624Z,18.62
2019-02-06T01:07:19.029Z,19.37
2019-02-06T01:09:45.406Z,21.55
2019-02-06T01:12:12.201Z,19.55
2019-02-06T01:14:38.698Z,18.55
2019-02-06T01:17:05.048Z,19.67
2019-02-06T01:19:31.677Z,17.75
2019-02-06T01:21:57.982Z,18.75
2019-02-06T01:24:24.566Z,18.92
2019-02-06T01:26:51.086Z,20.08
2019-02-06T01:29:17.472Z,18.77
2019-02-06T01:31:44.419Z,19.80
2019-02-06T01:34:10.825Z,19.32
2019-02-06T01:36:37.240Z,20.45
2019-02-06T01:39:07.805Z,20.62
2019-02-06T01:41:34.200Z,40.08
2019-02-06T01:44:00.477Z,30.40
2019-02-06T01:46:26.782Z,19.80
2019-02-06T01:48:53.027Z,21.30
2019-02-06T01:51:19.785Z,20.82
2019-02-06T01:53:46.181Z,22.67
2019-02-06T01:56:12.535Z,20.12
2019-02-06T01:58:38.829Z,21.40
2019-02-06T02:01:05.305Z,20.70
2019-02-06T02:03:31.659Z,23.83
2019-02-06T02:06:02.479Z,20.92
2019-02-06T02:08:26.314Z,21.93
2019-02-06T02:10:52.870Z,21.50
2019-02-06T02:13:19.544Z,22.58
2019-02-06T02:15:46.031Z,21.25
2019-02-06T02:18:12.501Z,21.12
2019-02-06T02:20:38.977Z,21.80
2019-02-06T02:23:05.484Z,19.57
2019-02-06T02:25:31.836Z,21.40
2019-02-06T02:27:58.117Z,22.73
2019-02-06T02:30:26.516Z,19.37
2019-02-06T02:32:52.923Z,24.67
2019-02-06T02:35:19.400Z,23.92
2019-02-06T02:37:45.783Z,18.73
2019-02-06T02:40:12.482Z,19.65
2019-02-06T02:42:38.821Z,19.00
2019-02-06T02:45:08.834Z,19.92
2019-02-06T02:47:35.220Z,18.80
2019-02-06T02:50:03.869Z,15.75
2019-02-06T02:52:30.137Z,18.15
2019-02-06T02:54:56.528Z,19.52
2019-02-06T02:57:22.808Z,16.57
2019-02-06T02:59:49.101Z,17.32
2019-02-06T03:02:23.268Z,16.65
2019-02-06T03:04:49.736Z,16.12
2019-02-06T03:07:16.423Z,17.40
2019-02-06T03:09:42.915Z,16.62
2019-02-06T03:12:09.372Z,18.23
2019-02-06T03:14:35.656Z,17.37
2019-02-06T03:17:03.315Z,16.42
2019-02-06T03:19:29.970Z,19.40
2019-02-06T03:21:56.360Z,16.23
2019-02-06T03:24:22.736Z,19.05
2019-02-06T03:26:49.402Z,17.25
2019-02-06T03:29:15.695Z,20.02
2019-02-06T03:31:41.949Z,17.90
2019-02-06T03:34:08.336Z,18.55
2019-02-06T03:36:40.616Z,19.10
2019-02-06T03:39:06.011Z,18.67
2019-02-06T03:41:32.330Z,20.40
2019-02-06T03:43:58.751Z,18.90
2019-02-06T03:46:25.296Z,19.25
2019-02-06T03:48:51.592Z,20.50
2019-02-06T03:51:17.953Z,18.75
2019-02-06T03:53:44.222Z,21.25
2019-02-06T03:56:10.634Z,21.37
2019-02-06T03:58:37.009Z,19.07
2019-02-06T04:01:03.872Z,19.40
2019-02-06T04:03:30.173Z,18.57
2019-02-06T04:05:57.015Z,20.23
2019-02-06T04:08:23.292Z,21.12
2019-02-06T04:10:49.672Z,22.93
2019-02-06T04:13:16.118Z,20.90
2019-02-06T04:15:42.726Z,22.30
2019-02-06T04:18:09.062Z,21.17
2019-02-06T04:20:35.512Z,23.47
2019-02-06T04:23:01.822Z,22.15
2019-02-06T04:25:28.192Z,22.85
2019-02-06T04:27:54.570Z,21.80
2019-02-06T04:30:20.957Z,22.52
2019-02-06T04:32:47.318Z,24.27
2019-02-06T04:35:14.697Z,21.75
2019-02-06T04:37:41.372Z,24.02
2019-02-06T04:40:13.996Z,23.00
2019-02-06T04:42:40.395Z,24.60
2019-02-06T04:45:09.469Z,26.25
2019-02-06T04:47:35.982Z,23.65
2019-02-06T04:50:05.241Z,23.65
2019-02-06T04:52:31.703Z,24.40
2019-02-06T04:54:58.011Z,24.72
2019-02-06T04:57:24.409Z,26.33
2019-02-06T04:59:50.780Z,27.52
2019-02-06T05:02:17.137Z,27.82
2019-02-06T05:04:43.416Z,27.75
2019-02-06T05:07:18.782Z,25.02
2019-02-06T05:09:37.845Z,24.50
2019-02-06T05:12:04.121Z,26.20
2019-02-06T05:14:30.500Z,24.80
2019-02-06T05:16:56.969Z,26.17
2019-02-06T05:19:23.225Z,25.00
2019-02-06T05:21:49.504Z,26.00
2019-02-06T05:24:16.178Z,24.80
2019-02-06T05:26:42.768Z,25.68
2019-02-06T05:29:09.068Z,25.08
2019-02-06T05:31:35.348Z,22.95
2019-02-06T05:34:01.822Z,24.43
2019-02-06T05:36:28.096Z,23.67
2019-02-06T05:38:54.358Z,25.88
2019-02-06T05:41:20.677Z,28.15
2019-02-06T05:43:46.931Z,26.17
2019-02-06T05:46:13.488Z,25.40
2019-02-06T05:48:39.885Z,24.35
2019-02-06T05:51:06.246Z,28.62
2019-02-06T05:53:32.615Z,27.75
2019-02-06T05:55:58.996Z,25.57
2019-02-06T05:58:25.451Z,25.60
2019-02-06T06:00:51.941Z,24.65
2019-02-06T06:03:18.296Z,27.40
2019-02-06T06:05:45.177Z,25.17
2019-02-06T06:08:11.675Z,25.45
2019-02-06T06:10:38.037Z,25.10
2019-02-06T06:13:04.320Z,23.42
2019-02-06T06:15:30.753Z,25.80
2019-02-06T06:17:57.220Z,26.05
2019-02-06T06:20:23.890Z,24.87
2019-02-06T06:22:50.197Z,25.02
2019-02-06T06:25:18.738Z,24.37
2019-02-06T06:27:46.145Z,25.60
2019-02-06T06:30:14.905Z,24.75
2019-02-06T06:32:41.395Z,24.27
2019-02-06T06:35:10.163Z,26.10
2019-02-06T06:37:36.592Z,25.95
2019-02-06T06:40:06.063Z,26.00
2019-02-06T06:42:32.362Z,25.05
2019-02-06T06:44:59.043Z,24.52
2019-02-06T06:47:25.402Z,25.72
2019-02-06T06:49:51.785Z,24.85
2019-02-06T06:52:18.182Z,25.15
2019-02-06T06:54:44.645Z,26.02
2019-02-06T06:57:12.476Z,25.08
2019-02-06T06:59:39.029Z,27.40
2019-02-06T07:02:05.546Z,27.25
2019-02-06T07:04:32.261Z,25.68
2019-02-06T07:06:58.615Z,26.55
2019-02-06T07:09:25.122Z,24.82
2019-02-06T07:11:51.396Z,25.48
2019-02-06T07:14:17.793Z,29.35
2019-02-06T07:16:44.223Z,23.60
2019-02-06T07:19:10.466Z,24.18
2019-02-06T07:21:36.876Z,24.80
2019-02-06T07:24:03.356Z,26.12
2019-02-06T07:26:29.636Z,27.20
2019-02-06T07:28:56.106Z,23.87
2019-02-06T07:31:22.384Z,22.80
2019-02-06T07:33:48.756Z,23.27
2019-02-06T07:36:15.175Z,20.65
2019-02-06T07:38:41.472Z,22.10
2019-02-06T07:41:07.792Z,23.92
2019-02-06T07:43:34.169Z,22.55
2019-02-06T07:46:01.078Z,24.55
2019-02-06T07:48:27.477Z,22.42
2019-02-06T07:50:53.923Z,22.70
2019-02-06T07:53:20.302Z,21.75
2019-02-06T07:55:46.622Z,24.70
2019-02-06T07:58:13.059Z,22.60
2019-02-06T08:00:39.552Z,24.57
2019-02-06T08:03:06.114Z,23.87
2019-02-06T08:05:32.991Z,22.95
2019-02-06T08:07:59.398Z,21.87
2019-02-06T08:10:28.687Z,22.10
2019-02-06T08:12:55.345Z,23.98
2019-02-06T08:15:21.818Z,23.25
2019-02-06T08:17:48.316Z,21.05
2019-02-06T08:20:21.578Z,21.10
2019-02-06T08:22:48.050Z,21.23
2019-02-06T08:25:16.333Z,20.90
2019-02-06T08:27:42.725Z,21.52
2019-02-06T08:30:27.154Z,20.72
2019-02-06T08:32:53.617Z,22.58
2019-02-06T08:35:20.008Z,19.90
2019-02-06T08:37:47.101Z,24.35
2019-02-06T08:40:25.085Z,21.55
2019-02-06T08:42:51.794Z,22.85
2019-02-06T08:45:18.443Z,21.80
2019-02-06T08:47:44.918Z,23.57
2019-02-06T08:50:19.719Z,24.20
2019-02-06T08:52:46.581Z,22.15
2019-02-06T08:55:16.049Z,23.57
2019-02-06T08:57:42.536Z,24.63
2019-02-06T09:00:20.880Z,24.65
2019-02-06T09:02:47.189Z,24.27
2019-02-06T09:05:13.752Z,25.95
2019-02-06T09:07:40.530Z,23.27
2019-02-06T09:10:24.896Z,25.88
2019-02-06T09:12:51.856Z,23.35
2019-02-06T09:15:18.445Z,25.48
2019-02-06T09:17:45.012Z,23.22
2019-02-06T09:20:14.907Z,21.07
2019-02-06T09:22:41.596Z,18.02
2019-02-06T09:25:11.494Z,20.08
2019-02-06T09:27:37.964Z,18.40
2019-02-06T09:30:07.729Z,18.42
2019-02-06T09:32:34.200Z,17.25
2019-02-06T09:35:00.591Z,16.30
2019-02-06T09:37:26.980Z,16.50
2019-02-06T09:39:53.250Z,14.65
2019-02-06T09:42:19.961Z,15.72
2019-02-06T09:44:46.255Z,18.55
2019-02-06T09:47:12.629Z,16.95
2019-02-06T09:49:41.568Z,18.75
2019-02-06T09:52:07.108Z,18.30
2019-02-06T09:54:33.682Z,19.23
2019-02-06T09:57:00.047Z,20.17
2019-02-06T09:59:26.322Z,20.40
2019-02-06T10:01:53.121Z,19.57
2019-02-06T10:04:19.385Z,19.02
2019-02-06T10:06:45.655Z,20.77
2019-02-06T10:09:22.329Z,19.05
2019-02-06T10:11:40.240Z,20.05
2019-02-06T10:14:06.608Z,18.40
2019-02-06T10:16:32.899Z,17.32
2019-02-06T10:18:59.425Z,19.05
2019-02-06T10:21:26.284Z,20.60
2019-02-06T10:23:52.785Z,19.52
2019-02-06T10:26:19.176Z,20.05
2019-02-06T10:28:45.769Z,17.60
2019-02-06T10:31:12.377Z,16.37
2019-02-06T10:33:38.665Z,17.95
2019-02-06T10:36:05.113Z,19.60
2019-02-06T10:38:31.412Z,19.52
2019-02-06T10:40:58.078Z,19.50
2019-02-06T10:43:32.062Z,18.30
2019-02-06T10:45:52.748Z,18.77
2019-02-06T10:48:19.221Z,19.82
2019-02-06T10:50:47.008Z,18.77
2019-02-06T10:53:13.272Z,17.55
2019-02-06T10:55:39.754Z,19.75
2019-02-06T10:58:06.376Z,19.25
2019-02-06T11:00:39.595Z,18.48
2019-02-06T11:03:06.157Z,21.00
2019-02-06T11:05:32.749Z,17.67
2019-02-06T11:07:59.261Z,18.32
2019-02-06T11:10:27.074Z,15.38
2019-02-06T11:12:53.690Z,17.85
2019-02-06T11:15:21.092Z,16.97
2019-02-06T11:17:48.761Z,15.80
2019-02-06T11:20:24.217Z,15.90
2019-02-06T11:22:50.714Z,15.88
2019-02-06T11:25:17.168Z,16.37
2019-02-06T11:27:43.546Z,16.30
2019-02-06T11:30:15.499Z,15.78
2019-02-06T11:32:42.129Z,16.65
2019-02-06T11:35:09.205Z,17.10
2019-02-06T11:37:35.759Z,17.52
2019-02-06T11:40:04.788Z,16.80
2019-02-06T11:42:31.303Z,17.12
2019-02-06T11:44:57.665Z,17.40
2019-02-06T11:47:24.195Z,15.63
2019-02-06T11:49:52.290Z,15.85
2019-02-06T11:52:19.089Z,15.98
2019-02-06T11:54:45.510Z,19.55
2019-02-06T11:57:11.986Z,15.93
2019-02-06T11:59:38.257Z,17.00
2019-02-06T12:02:04.704Z,14.78
2019-02-06T12:04:31.105Z,15.68
2019-02-06T12:06:57.579Z,16.90
2019-02-06T12:09:23.973Z,17.80
2019-02-06T12:11:50.371Z,16.82
2019-02-06T12:14:16.764Z,17.07
2019-02-06T12:16:43.053Z,16.10
2019-02-06T12:19:09.543Z,16.35
2019-02-06T12:21:35.972Z,16.80
2019-02-06T12:24:02.524Z,16.42
2019-02-06T12:26:28.883Z,19.57
2019-02-06T12:28:55.313Z,16.93
2019-02-06T12:31:21.701Z,15.10
2019-02-06T12:33:48.359Z,17.80
2019-02-06T12:36:15.871Z,16.62
2019-02-06T12:38:53.243Z,15.53
2019-02-06T12:41:10.812Z,15.65
2019-02-06T12:43:37.217Z,22.30
2019-02-06T12:46:03.944Z,24.55
2019-02-06T12:48:30.415Z,16.02
2019-02-06T12:50:56.898Z,19.00
2019-02-06T12:53:23.371Z,20.77
2019-02-06T12:55:49.923Z,17.00
2019-02-06T12:58:16.445Z,16.95
2019-02-06T13:00:43.413Z,18.10
2019-02-06T13:03:09.905Z,17.80
2019-02-06T13:05:36.425Z,17.80
2019-02-06T13:08:04.004Z,17.70
2019-02-06T13:10:34.119Z,17.32
2019-02-06T13:12:58.441Z,15.60
2019-02-06T13:15:24.937Z,15.28
2019-02-06T13:17:51.677Z,16.52
2019-02-06T13:20:24.198Z,15.58
2019-02-06T13:22:50.654Z,15.90
2019-02-06T13:25:17.317Z,16.65
2019-02-06T13:27:43.964Z,16.55
2019-02-06T13:30:17.078Z,15.75
2019-02-06T13:32:43.663Z,16.65
2019-02-06T13:35:15.197Z,16.10
2019-02-06T13:37:41.676Z,17.15
2019-02-06T13:40:11.743Z,17.02
2019-02-06T13:42:38.132Z,18.20
2019-02-06T13:45:08.288Z,16.97
2019-02-06T13:47:34.792Z,17.05
2019-02-06T13:50:01.556Z,17.80
2019-02-06T13:52:27.954Z,15.63
2019-02-06T13:54:54.426Z,15.80
2019-02-06T13:57:20.811Z,15.28
2019-02-06T13:59:47.228Z,16.55
2019-02-06T14:02:13.677Z,15.80
2019-02-06T14:04:39.977Z,16.95
2019-02-06T14:07:06.316Z,17.32
2019-02-06T14:09:33.189Z,17.02
2019-02-06T14:11:59.526Z,16.87
2019-02-06T14:14:27.130Z,19.10
2019-02-06T14:16:53.617Z,16.67
2019-02-06T14:19:20.107Z,16.05
2019-02-06T14:21:46.576Z,17.42
2019-02-06T14:24:16.641Z,17.48
2019-02-06T14:26:46.862Z,16.55
2019-02-06T14:29:42.769Z,18.25
2019-02-06T14:32:27.897Z,16.35
2019-02-06T14:35:09.781Z,16.62
2019-02-06T14:37:55.178Z,15.48
2019-02-06T14:40:25.239Z,16.40
2019-02-06T14:43:17.326Z,15.48
2019-02-06T14:46:08.220Z,16.80
2019-02-06T14:48:41.484Z,16.02
2019-02-06T14:51:17.649Z,17.42
2019-02-06T14:53:50.456Z,17.27
2019-02-06T14:56:29.333Z,18.75
2019-02-06T14:59:02.226Z,16.07
2019-02-06T15:01:55.150Z,17.27
2019-02-06T15:04:43.485Z,16.37
2019-02-06T15:07:19.164Z,16.82
2019-02-06T15:10:18.075Z,16.32
2019-02-06T15:13:08.021Z,17.67
2019-02-06T15:15:38.121Z,19.50
2019-02-06T15:18:27.139Z,16.85
2019-02-06T15:21:09.517Z,17.42
2019-02-06T15:24:02.256Z,18.05
2019-02-06T15:26:43.830Z,17.15
2019-02-06T15:29:31.955Z,18.20
2019-02-06T15:32:07.961Z,16.93
2019-02-06T15:34:49.804Z,17.57
2019-02-06T15:37:39.800Z,17.90
2019-02-06T15:40:25.196Z,18.77
2019-02-06T15:43:10.404Z,18.30
2019-02-06T15:45:40.525Z,19.60
2019-02-06T15:48:19.726Z,19.60
2019-02-06T15:51:11.088Z,20.70
2019-02-06T15:53:53.252Z,22.10
2019-02-06T15:56:29.592Z,19.52
2019-02-06T15:59:20.973Z,19.42
2019-02-06T16:01:57.374Z,18.52
2019-02-06T16:04:41.628Z,19.45
2019-02-06T16:07:35.851Z,21.65
2019-02-06T16:10:17.796Z,19.67
2019-02-06T16:13:04.696Z,18.82
2019-02-06T16:15:38.631Z,19.73
2019-02-06T16:18:27.040Z,18.87
2019-02-06T16:21:12.372Z,19.55
2019-02-06T16:23:42.469Z,18.90
2019-02-06T16:26:45.260Z,20.95
2019-02-06T16:29:15.440Z,20.35
2019-02-06T16:31:51.784Z,21.77
2019-02-06T16:34:33.943Z,19.25
2019-02-06T16:37:09.926Z,20.85
2019-02-06T16:39:56.588Z,21.40
2019-02-06T16:42:40.004Z,20.20
2019-02-06T16:45:21.988Z,21.40
2019-02-06T16:47:55.427Z,20.70
2019-02-06T16:50:40.571Z,19.82
2019-02-06T16:53:10.724Z,21.37
2019-02-06T16:55:57.578Z,20.35
2019-02-06T16:58:36.801Z,21.23
2019-02-06T17:01:12.772Z,20.52
2019-02-06T17:03:52.080Z,23.25
2019-02-06T17:06:42.086Z,20.88
2019-02-06T17:09:24.126Z,21.20
2019-02-06T17:12:03.923Z,21.27
2019-02-06T17:14:26.391Z,22.25
2019-02-06T17:17:02.135Z,20.85
2019-02-06T17:19:32.360Z,21.70
2019-02-06T17:22:23.617Z,21.20
2019-02-06T17:25:08.572Z,22.25
2019-02-06T17:27:44.557Z,21.20
2019-02-06T17:30:43.591Z,21.00
2019-02-06T17:33:49.940Z,22.30
2019-02-06T17:36:35.518Z,21.68
2019-02-06T17:39:38.732Z,21.10
2019-02-06T17:42:20.876Z,21.85
2019-02-06T17:45:07.854Z,20.75
2019-02-06T17:48:06.928Z,22.85
2019-02-06T17:50:53.691Z,22.50
2019-02-06T17:53:35.638Z,24.47
2019-02-06T17:56:02.080Z,21.57
2019-02-06T17:58:31.796Z,20.88
2019-02-06T18:01:02.804Z,20.77
2019-02-06T18:03:32.684Z,21.85
2019-02-06T18:05:59.534Z,24.05
2019-02-06T18:08:26.022Z,22.65
2019-02-06T18:10:52.337Z,21.55
2019-02-06T18:13:18.878Z,22.82
2019-02-06T18:15:45.480Z,22.40
2019-02-06T18:18:12.005Z,24.20
2019-02-06T18:20:38.867Z,27.27
2019-02-06T18:23:05.512Z,30.32
2019-02-06T18:25:32.018Z,25.82
2019-02-06T18:27:58.549Z,29.27
2019-02-06T18:30:25.886Z,25.97
2019-02-06T18:32:53.162Z,26.85
2019-02-06T18:35:19.589Z,33.70
2019-02-06T18:37:48.141Z,32.42
2019-02-06T18:40:16.152Z,32.55
2019-02-06T18:42:43.814Z,27.80
2019-02-06T18:45:13.348Z,26.62
2019-02-06T18:47:39.899Z,24.72
2019-02-06T18:50:13.838Z,26.55
2019-02-06T18:52:40.349Z,23.45
2019-02-06T18:55:06.886Z,23.40
2019-02-06T18:57:33.258Z,23.02
2019-02-06T18:59:59.853Z,22.80
2019-02-06T19:02:26.452Z,23.95
2019-02-06T19:04:53.012Z,27.00
2019-02-06T19:07:19.841Z,26.95
2019-02-06T19:09:46.431Z,25.23
2019-02-06T19:12:13.245Z,29.60
2019-02-06T19:14:39.637Z,28.45
2019-02-06T19:17:06.114Z,35.73
2019-02-06T19:19:32.445Z,28.65
2019-02-06T19:21:58.900Z,24.35
2019-02-06T19:24:26.156Z,25.32
2019-02-06T19:26:52.659Z,25.85
2019-02-06T19:29:19.000Z,23.85
2019-02-06T19:31:45.586Z,25.97
2019-02-06T19:34:12.033Z,25.90
2019-02-06T19:36:38.577Z,22.87
2019-02-06T19:39:06.819Z,23.85
2019-02-06T19:41:33.304Z,24.18
2019-02-06T19:43:59.800Z,24.90
2019-02-06T19:46:26.408Z,22.65
2019-02-06T19:48:52.857Z,23.87
2019-02-06T19:51:19.337Z,23.27
2019-02-06T19:53:46.191Z,24.75
2019-02-06T19:56:13.432Z,26.12
2019-02-06T19:58:41.142Z,24.87
2019-02-06T20:01:07.662Z,24.95
2019-02-06T20:03:34.186Z,25.05
2019-02-06T20:06:00.649Z,25.15
2019-02-06T20:08:27.260Z,25.75
2019-02-06T20:10:54.645Z,25.32
2019-02-06T20:13:20.992Z,26.40
2019-02-06T20:15:47.789Z,27.45
2019-02-06T20:18:14.384Z,27.45
2019-02-06T20:20:41.014Z,23.35
2019-02-06T20:23:07.549Z,25.62
2019-02-06T20:25:34.959Z,23.35
2019-02-06T20:28:01.432Z,24.45
2019-02-06T20:30:29.245Z,24.43
2019-02-06T20:32:55.737Z,26.27
2019-02-06T20:35:22.405Z,24.57
2019-02-06T20:37:48.899Z,27.82
2019-02-06T20:40:27.634Z,26.57
2019-02-06T20:42:54.832Z,23.45
2019-02-06T20:45:21.397Z,27.02
2019-02-06T20:47:47.925Z,24.30
2019-02-06T20:50:18.149Z,25.62
2019-02-06T20:52:44.687Z,24.00
2019-02-06T20:55:11.364Z,25.23
2019-02-06T20:57:38.120Z,23.45
2019-02-06T21:00:08.228Z,28.98
2019-02-06T21:02:34.821Z,26.00
2019-02-06T21:05:01.222Z,21.80
2019-02-06T21:07:27.672Z,24.15
2019-02-06T21:09:54.206Z,24.70
2019-02-06T21:12:20.593Z,25.57
2019-02-06T21:14:47.300Z,27.00
2019-02-06T21:17:14.116Z,24.47
2019-02-06T21:19:40.516Z,24.70
2019-02-06T21:22:07.064Z,26.02
2019-02-06T21:24:33.640Z,25.37
2019-02-06T21:26:59.978Z,26.00
2019-02-06T21:29:26.365Z,24.20
2019-02-06T21:31:52.744Z,23.40
2019-02-06T21:34:19.127Z,25.15
2019-02-06T21:36:45.939Z,24.70
2019-02-06T21:39:12.413Z,25.30
2019-02-06T21:41:38.794Z,26.62
2019-02-06T21:44:05.321Z,26.00
2019-02-06T21:46:31.881Z,24.67
2019-02-06T21:48:58.271Z,24.43
2019-02-06T21:51:24.671Z,24.50
2019-02-06T21:53:51.048Z,23.32
2019-02-06T21:56:17.784Z,27.27
2019-02-06T21:58:44.201Z,25.62
2019-02-06T22:01:10.477Z,24.55
2019-02-06T22:03:36.900Z,24.45
2019-02-06T22:06:03.515Z,26.12
2019-02-06T22:08:30.035Z,26.10
2019-02-06T22:10:56.421Z,26.57
2019-02-06T22:13:22.802Z,25.57
2019-02-06T22:15:49.580Z,26.20
2019-02-06T22:18:16.030Z,26.27
2019-02-06T22:20:42.350Z,28.30
2019-02-06T22:23:08.915Z,28.15
2019-02-06T22:25:35.282Z,25.25
2019-02-06T22:28:01.807Z,26.65
2019-02-06T22:30:29.131Z,27.20
2019-02-06T22:32:55.943Z,26.65
2019-02-06T22:35:22.895Z,26.90
2019-02-06T22:37:49.434Z,27.25
2019-02-06T22:40:17.645Z,25.37
2019-02-06T22:42:44.190Z,27.37
2019-02-06T22:45:16.445Z,24.00
2019-02-06T22:47:42.943Z,26.12
2019-02-06T22:50:12.763Z,27.10
2019-02-06T22:52:39.993Z,24.75
2019-02-06T22:55:08.977Z,24.55
2019-02-06T22:57:35.416Z,22.98
2019-02-06T23:00:04.208Z,22.93
2019-02-06T23:02:30.721Z,23.70
2019-02-06T23:04:57.117Z,21.55
2019-02-06T23:07:23.645Z,24.55
2019-02-06T23:09:50.565Z,22.62
2019-02-06T23:12:17.060Z,23.90
2019-02-06T23:14:43.544Z,22.70
2019-02-06T23:17:10.105Z,23.25
2019-02-06T23:19:36.494Z,21.62
2019-02-06T23:22:03.122Z,20.60
2019-02-06T23:24:29.639Z,19.42
2019-02-06T23:26:56.085Z,22.37
2019-02-06T23:29:22.605Z,23.05
2019-02-06T23:31:49.110Z,20.43
2019-02-06T23:34:15.929Z,24.50
2019-02-06T23:36:42.392Z,23.92
2019-02-06T23:39:13.436Z,23.32
2019-02-06T23:41:39.878Z,22.00
2019-02-06T23:44:06.253Z,21.75
2019-02-06T23:46:32.943Z,22.40
2019-02-06T23:48:59.246Z,21.95
2019-02-06T23:51:25.689Z,21.25
2019-02-06T23:53:52.267Z,24.45
2019-02-06T23:56:18.734Z,23.20
2019-02-06T23:58:45.478Z,21.80
